sensor_id;sensor_type;location;lat;lon;timestamp;P1;durP1;ratioP1;P2;durP2;ratioP2
70385;SDS011;63206;55.650;37.500;2023-01-20T00:01:36;52.67;;;16.67;;
70385;SDS011;63206;55.650;37.500;2023-01-20T00:04:06;48.67;;;16.15;;
70385;SDS011;63206;55.650;37.500;2023-01-20T00:06:35;45.65;;;15.75;;
70385;SDS011;63206;55.650;37.500;2023-01-20T00:09:03;39.47;;;14.43;;
70385;SDS011;63206;55.650;37.500;2023-01-20T00:11:32;44.13;;;16.48;;
70385;SDS011;63206;55.650;37.500;2023-01-20T00:14:01;49.60;;;16.83;;
70385;SDS011;63206;55.650;37.500;2023-01-20T00:19:01;44.22;;;15.10;;
70385;SDS011;63206;55.650;37.500;2023-01-20T00:21:30;47.20;;;15.48;;
70385;SDS011;63206;55.650;37.500;2023-01-20T00:24:02;40.20;;;14.73;;
70385;SDS011;63206;55.650;37.500;2023-01-20T00:26:33;42.92;;;14.85;;
70385;SDS011;63206;55.650;37.500;2023-01-20T00:31:32;46.28;;;16.33;;
70385;SDS011;63206;55.650;37.500;2023-01-20T00:34:03;41.67;;;15.15;;
70385;SDS011;63206;55.650;37.500;2023-01-20T00:36:35;42.08;;;16.20;;
70385;SDS011;63206;55.650;37.500;2023-01-20T00:39:06;40.30;;;14.95;;
70385;SDS011;63206;55.650;37.500;2023-01-20T00:41:38;42.10;;;15.40;;
70385;SDS011;63206;55.650;37.500;2023-01-20T00:44:04;43.78;;;15.82;;
70385;SDS011;63206;55.650;37.500;2023-01-20T00:46:35;47.42;;;15.68;;
70385;SDS011;63206;55.650;37.500;2023-01-20T00:49:08;43.67;;;15.30;;
70385;SDS011;63206;55.650;37.500;2023-01-20T00:51:41;42.80;;;16.30;;
70385;SDS011;63206;55.650;37.500;2023-01-20T00:54:07;40.20;;;14.13;;
70385;SDS011;63206;55.650;37.500;2023-01-20T00:56:39;41.38;;;14.90;;
70385;SDS011;63206;55.650;37.500;2023-01-20T00:59:08;45.58;;;15.40;;
70385;SDS011;63206;55.650;37.500;2023-01-20T01:01:34;35.05;;;12.32;;
70385;SDS011;63206;55.650;37.500;2023-01-20T01:04:00;38.65;;;14.38;;
70385;SDS011;63206;55.650;37.500;2023-01-20T01:06:31;39.78;;;15.43;;
70385;SDS011;63206;55.650;37.500;2023-01-20T01:09:00;39.38;;;13.10;;
70385;SDS011;63206;55.650;37.500;2023-01-20T01:11:29;41.55;;;15.38;;
70385;SDS011;63206;55.650;37.500;2023-01-20T01:13:58;42.67;;;14.38;;
70385;SDS011;63206;55.650;37.500;2023-01-20T01:16:34;42.22;;;15.93;;
70385;SDS011;63206;55.650;37.500;2023-01-20T01:19:00;42.85;;;14.63;;
70385;SDS011;63206;55.650;37.500;2023-01-20T01:21:34;42.05;;;15.15;;
70385;SDS011;63206;55.650;37.500;2023-01-20T01:24:09;45.33;;;14.60;;
70385;SDS011;63206;55.650;37.500;2023-01-20T01:26:41;40.42;;;15.60;;
70385;SDS011;63206;55.650;37.500;2023-01-20T01:29:13;38.50;;;13.95;;
70385;SDS011;63206;55.650;37.500;2023-01-20T01:31:42;44.00;;;15.25;;
70385;SDS011;63206;55.650;37.500;2023-01-20T01:36:42;42.20;;;14.43;;
70385;SDS011;63206;55.650;37.500;2023-01-20T01:39:13;37.80;;;13.90;;
70385;SDS011;63206;55.650;37.500;2023-01-20T01:41:44;43.70;;;14.25;;
70385;SDS011;63206;55.650;37.500;2023-01-20T01:44:11;36.78;;;12.32;;
70385;SDS011;63206;55.650;37.500;2023-01-20T01:46:41;43.17;;;13.98;;
70385;SDS011;63206;55.650;37.500;2023-01-20T01:49:17;45.53;;;15.27;;
70385;SDS011;63206;55.650;37.500;2023-01-20T01:52:11;41.38;;;14.15;;
70385;SDS011;63206;55.650;37.500;2023-01-20T01:54:37;38.85;;;12.95;;
70385;SDS011;63206;55.650;37.500;2023-01-20T01:57:08;36.20;;;13.07;;
70385;SDS011;63206;55.650;37.500;2023-01-20T01:59:43;34.90;;;12.02;;
70385;SDS011;63206;55.650;37.500;2023-01-20T02:02:14;39.75;;;12.80;;
70385;SDS011;63206;55.650;37.500;2023-01-20T02:04:40;38.90;;;13.93;;
70385;SDS011;63206;55.650;37.500;2023-01-20T02:07:13;38.70;;;12.05;;
70385;SDS011;63206;55.650;37.500;2023-01-20T02:09:40;37.95;;;12.88;;
70385;SDS011;63206;55.650;37.500;2023-01-20T02:12:16;45.35;;;15.43;;
70385;SDS011;63206;55.650;37.500;2023-01-20T02:14:52;33.00;;;12.32;;
70385;SDS011;63206;55.650;37.500;2023-01-20T02:17:27;44.55;;;13.95;;
70385;SDS011;63206;55.650;37.500;2023-01-20T02:28:05;38.40;;;12.60;;
70385;SDS011;63206;55.650;37.500;2023-01-20T02:33:46;38.05;;;13.27;;
70385;SDS011;63206;55.650;37.500;2023-01-20T02:36:39;40.10;;;13.77;;
70385;SDS011;63206;55.650;37.500;2023-01-20T02:41:44;32.78;;;12.43;;
70385;SDS011;63206;55.650;37.500;2023-01-20T02:44:35;42.47;;;12.90;;
70385;SDS011;63206;55.650;37.500;2023-01-20T02:47:12;32.33;;;11.43;;
70385;SDS011;63206;55.650;37.500;2023-01-20T02:52:12;36.65;;;12.40;;
70385;SDS011;63206;55.650;37.500;2023-01-20T02:54:43;39.90;;;13.65;;
70385;SDS011;63206;55.650;37.500;2023-01-20T02:57:18;36.20;;;13.32;;
70385;SDS011;63206;55.650;37.500;2023-01-20T02:59:52;36.92;;;13.35;;
70385;SDS011;63206;55.650;37.500;2023-01-20T03:02:25;40.22;;;13.13;;
70385;SDS011;63206;55.650;37.500;2023-01-20T03:04:59;40.53;;;14.18;;
70385;SDS011;63206;55.650;37.500;2023-01-20T03:07:27;37.88;;;13.13;;
70385;SDS011;63206;55.650;37.500;2023-01-20T03:09:54;37.03;;;12.75;;
70385;SDS011;63206;55.650;37.500;2023-01-20T03:12:27;41.85;;;13.63;;
70385;SDS011;63206;55.650;37.500;2023-01-20T03:14:56;38.20;;;13.85;;
70385;SDS011;63206;55.650;37.500;2023-01-20T03:17:22;38.45;;;13.13;;
70385;SDS011;63206;55.650;37.500;2023-01-20T03:19:48;39.78;;;14.00;;
70385;SDS011;63206;55.650;37.500;2023-01-20T03:22:17;36.70;;;12.63;;
70385;SDS011;63206;55.650;37.500;2023-01-20T03:24:46;39.47;;;12.75;;
70385;SDS011;63206;55.650;37.500;2023-01-20T03:27:13;33.55;;;12.38;;
70385;SDS011;63206;55.650;37.500;2023-01-20T03:29:38;34.42;;;12.30;;
70385;SDS011;63206;55.650;37.500;2023-01-20T03:32:10;35.25;;;12.80;;
70385;SDS011;63206;55.650;37.500;2023-01-20T03:34:42;35.70;;;13.07;;
70385;SDS011;63206;55.650;37.500;2023-01-20T03:37:11;41.78;;;14.20;;
70385;SDS011;63206;55.650;37.500;2023-01-20T03:39:47;37.55;;;13.05;;
70385;SDS011;63206;55.650;37.500;2023-01-20T03:42:33;38.30;;;13.10;;
70385;SDS011;63206;55.650;37.500;2023-01-20T03:47:41;34.08;;;12.85;;
70385;SDS011;63206;55.650;37.500;2023-01-20T03:55:46;31.80;;;11.93;;
70385;SDS011;63206;55.650;37.500;2023-01-20T03:58:22;39.72;;;12.75;;
70385;SDS011;63206;55.650;37.500;2023-01-20T04:00:51;36.05;;;11.15;;
70385;SDS011;63206;55.650;37.500;2023-01-20T04:03:18;39.20;;;12.55;;
70385;SDS011;63206;55.650;37.500;2023-01-20T04:05:48;34.28;;;11.60;;
70385;SDS011;63206;55.650;37.500;2023-01-20T04:08:15;38.58;;;12.88;;
70385;SDS011;63206;55.650;37.500;2023-01-20T04:10:42;37.65;;;12.80;;
70385;SDS011;63206;55.650;37.500;2023-01-20T04:13:12;32.83;;;12.77;;
70385;SDS011;63206;55.650;37.500;2023-01-20T04:15:40;39.42;;;12.57;;
70385;SDS011;63206;55.650;37.500;2023-01-20T04:18:10;34.30;;;11.40;;
70385;SDS011;63206;55.650;37.500;2023-01-20T04:20:49;33.38;;;11.45;;
70385;SDS011;63206;55.650;37.500;2023-01-20T04:23:25;38.05;;;12.35;;
70385;SDS011;63206;55.650;37.500;2023-01-20T04:28:24;33.45;;;11.43;;
70385;SDS011;63206;55.650;37.500;2023-01-20T04:30:53;37.45;;;12.43;;
70385;SDS011;63206;55.650;37.500;2023-01-20T04:33:19;34.10;;;12.10;;
70385;SDS011;63206;55.650;37.500;2023-01-20T04:35:45;38.50;;;13.95;;
70385;SDS011;63206;55.650;37.500;2023-01-20T04:38:20;33.78;;;11.20;;
70385;SDS011;63206;55.650;37.500;2023-01-20T04:40:46;31.20;;;10.02;;
70385;SDS011;63206;55.650;37.500;2023-01-20T04:43:12;37.60;;;12.63;;
70385;SDS011;63206;55.650;37.500;2023-01-20T04:45:43;33.72;;;12.48;;
70385;SDS011;63206;55.650;37.500;2023-01-20T04:48:12;34.63;;;11.65;;
70385;SDS011;63206;55.650;37.500;2023-01-20T04:50:43;32.45;;;11.65;;
70385;SDS011;63206;55.650;37.500;2023-01-20T04:53:14;31.20;;;11.52;;
70385;SDS011;63206;55.650;37.500;2023-01-20T04:55:49;32.67;;;10.40;;
70385;SDS011;63206;55.650;37.500;2023-01-20T05:00:46;28.90;;;10.25;;
70385;SDS011;63206;55.650;37.500;2023-01-20T05:03:15;32.20;;;11.57;;
70385;SDS011;63206;55.650;37.500;2023-01-20T05:05:50;31.50;;;10.95;;
70385;SDS011;63206;55.650;37.500;2023-01-20T05:08:21;31.33;;;11.52;;
70385;SDS011;63206;55.650;37.500;2023-01-20T05:10:50;36.05;;;10.90;;
70385;SDS011;63206;55.650;37.500;2023-01-20T05:13:19;34.22;;;12.40;;
70385;SDS011;63206;55.650;37.500;2023-01-20T05:15:45;30.90;;;10.68;;
70385;SDS011;63206;55.650;37.500;2023-01-20T05:18:19;33.67;;;11.65;;
70385;SDS011;63206;55.650;37.500;2023-01-20T05:23:16;34.10;;;9.57;;
70385;SDS011;63206;55.650;37.500;2023-01-20T05:25:52;37.42;;;12.15;;
70385;SDS011;63206;55.650;37.500;2023-01-20T05:28:21;35.58;;;11.93;;
70385;SDS011;63206;55.650;37.500;2023-01-20T05:30:47;28.42;;;10.52;;
70385;SDS011;63206;55.650;37.500;2023-01-20T05:33:23;36.30;;;10.73;;
70385;SDS011;63206;55.650;37.500;2023-01-20T05:35:51;37.20;;;12.38;;
70385;SDS011;63206;55.650;37.500;2023-01-20T05:38:20;35.25;;;12.80;;
70385;SDS011;63206;55.650;37.500;2023-01-20T05:40:49;35.17;;;12.00;;
70385;SDS011;63206;55.650;37.500;2023-01-20T05:43:20;32.30;;;11.30;;
70385;SDS011;63206;55.650;37.500;2023-01-20T05:45:46;31.58;;;10.43;;
70385;SDS011;63206;55.650;37.500;2023-01-20T05:48:12;39.03;;;12.50;;
70385;SDS011;63206;55.650;37.500;2023-01-20T05:50:41;39.65;;;13.05;;
70385;SDS011;63206;55.650;37.500;2023-01-20T05:53:13;39.13;;;12.73;;
70385;SDS011;63206;55.650;37.500;2023-01-20T05:55:39;39.03;;;12.20;;
70385;SDS011;63206;55.650;37.500;2023-01-20T05:58:05;36.58;;;11.85;;
70385;SDS011;63206;55.650;37.500;2023-01-20T06:00:34;35.78;;;12.20;;
70385;SDS011;63206;55.650;37.500;2023-01-20T06:03:03;36.95;;;12.38;;
70385;SDS011;63206;55.650;37.500;2023-01-20T06:05:35;36.25;;;11.75;;
70385;SDS011;63206;55.650;37.500;2023-01-20T06:08:01;35.42;;;11.88;;
70385;SDS011;63206;55.650;37.500;2023-01-20T06:10:27;37.00;;;12.35;;
70385;SDS011;63206;55.650;37.500;2023-01-20T06:12:54;33.85;;;11.98;;
70385;SDS011;63206;55.650;37.500;2023-01-20T06:15:25;38.85;;;13.00;;
70385;SDS011;63206;55.650;37.500;2023-01-20T06:17:53;35.92;;;12.13;;
70385;SDS011;63206;55.650;37.500;2023-01-20T06:20:19;38.08;;;12.20;;
70385;SDS011;63206;55.650;37.500;2023-01-20T06:22:48;37.85;;;12.25;;
70385;SDS011;63206;55.650;37.500;2023-01-20T06:25:14;32.72;;;11.38;;
70385;SDS011;63206;55.650;37.500;2023-01-20T06:27:40;37.35;;;11.77;;
70385;SDS011;63206;55.650;37.500;2023-01-20T06:30:09;32.90;;;11.23;;
70385;SDS011;63206;55.650;37.500;2023-01-20T06:32:41;35.65;;;12.35;;
70385;SDS011;63206;55.650;37.500;2023-01-20T06:37:39;36.15;;;11.95;;
70385;SDS011;63206;55.650;37.500;2023-01-20T06:40:11;34.97;;;11.00;;
70385;SDS011;63206;55.650;37.500;2023-01-20T06:42:43;37.88;;;12.63;;
70385;SDS011;63206;55.650;37.500;2023-01-20T06:47:51;36.15;;;13.65;;
70385;SDS011;63206;55.650;37.500;2023-01-20T06:50:25;36.42;;;10.95;;
70385;SDS011;63206;55.650;37.500;2023-01-20T06:52:57;32.47;;;12.27;;
70385;SDS011;63206;55.650;37.500;2023-01-20T06:55:28;33.97;;;11.32;;
70385;SDS011;63206;55.650;37.500;2023-01-20T06:58:00;33.47;;;11.40;;
70385;SDS011;63206;55.650;37.500;2023-01-20T07:00:28;36.60;;;12.85;;
70385;SDS011;63206;55.650;37.500;2023-01-20T07:03:03;37.42;;;12.32;;
70385;SDS011;63206;55.650;37.500;2023-01-20T07:05:31;35.50;;;12.60;;
70385;SDS011;63206;55.650;37.500;2023-01-20T07:07:57;38.22;;;13.55;;
70385;SDS011;63206;55.650;37.500;2023-01-20T07:10:23;34.83;;;12.80;;
70385;SDS011;63206;55.650;37.500;2023-01-20T07:12:52;37.10;;;12.77;;
70385;SDS011;63206;55.650;37.500;2023-01-20T07:15:20;40.35;;;13.65;;
70385;SDS011;63206;55.650;37.500;2023-01-20T07:17:49;36.25;;;13.10;;
70385;SDS011;63206;55.650;37.500;2023-01-20T07:20:17;39.88;;;13.48;;
70385;SDS011;63206;55.650;37.500;2023-01-20T07:25:14;38.13;;;12.90;;
70385;SDS011;63206;55.650;37.500;2023-01-20T07:27:40;34.33;;;11.82;;
70385;SDS011;63206;55.650;37.500;2023-01-20T07:30:12;35.53;;;12.73;;
70385;SDS011;63206;55.650;37.500;2023-01-20T07:32:43;38.08;;;13.27;;
70385;SDS011;63206;55.650;37.500;2023-01-20T07:35:15;35.67;;;12.82;;
70385;SDS011;63206;55.650;37.500;2023-01-20T07:37:44;34.90;;;13.77;;
70385;SDS011;63206;55.650;37.500;2023-01-20T07:40:13;35.58;;;12.10;;
70385;SDS011;63206;55.650;37.500;2023-01-20T07:42:44;39.58;;;13.48;;
70385;SDS011;63206;55.650;37.500;2023-01-20T07:45:16;37.03;;;12.63;;
70385;SDS011;63206;55.650;37.500;2023-01-20T07:47:45;35.33;;;12.75;;
70385;SDS011;63206;55.650;37.500;2023-01-20T07:50:14;37.40;;;12.43;;
70385;SDS011;63206;55.650;37.500;2023-01-20T07:52:40;38.15;;;13.55;;
70385;SDS011;63206;55.650;37.500;2023-01-20T07:55:06;42.75;;;14.10;;
70385;SDS011;63206;55.650;37.500;2023-01-20T07:57:41;36.08;;;13.30;;
70385;SDS011;63206;55.650;37.500;2023-01-20T08:00:07;37.80;;;13.93;;
70385;SDS011;63206;55.650;37.500;2023-01-20T08:02:36;45.42;;;13.95;;
70385;SDS011;63206;55.650;37.500;2023-01-20T08:05:03;36.38;;;14.70;;
70385;SDS011;63206;55.650;37.500;2023-01-20T08:07:31;32.95;;;13.10;;
70385;SDS011;63206;55.650;37.500;2023-01-20T08:10:00;38.78;;;13.13;;
70385;SDS011;63206;55.650;37.500;2023-01-20T08:12:27;42.67;;;14.55;;
70385;SDS011;63206;55.650;37.500;2023-01-20T08:15:00;39.42;;;14.27;;
70385;SDS011;63206;55.650;37.500;2023-01-20T08:17:29;41.45;;;13.38;;
70385;SDS011;63206;55.650;37.500;2023-01-20T08:19:58;37.42;;;13.77;;
70385;SDS011;63206;55.650;37.500;2023-01-20T08:22:24;37.10;;;12.82;;
70385;SDS011;63206;55.650;37.500;2023-01-20T08:24:50;38.10;;;12.82;;
70385;SDS011;63206;55.650;37.500;2023-01-20T08:27:24;39.53;;;13.05;;
70385;SDS011;63206;55.650;37.500;2023-01-20T08:29:53;39.47;;;13.45;;
70385;SDS011;63206;55.650;37.500;2023-01-20T08:32:24;35.13;;;13.38;;
70385;SDS011;63206;55.650;37.500;2023-01-20T08:34:55;39.95;;;14.13;;
70385;SDS011;63206;55.650;37.500;2023-01-20T08:37:24;44.88;;;13.30;;
70385;SDS011;63206;55.650;37.500;2023-01-20T08:39:55;39.33;;;13.40;;
70385;SDS011;63206;55.650;37.500;2023-01-20T08:42:24;41.03;;;14.10;;
70385;SDS011;63206;55.650;37.500;2023-01-20T08:44:58;41.72;;;13.02;;
70385;SDS011;63206;55.650;37.500;2023-01-20T08:47:29;37.13;;;13.52;;
70385;SDS011;63206;55.650;37.500;2023-01-20T08:50:00;36.20;;;13.35;;
70385;SDS011;63206;55.650;37.500;2023-01-20T08:52:31;41.35;;;14.02;;
70385;SDS011;63206;55.650;37.500;2023-01-20T08:55:07;37.42;;;13.93;;
70385;SDS011;63206;55.650;37.500;2023-01-20T08:57:41;36.50;;;12.90;;
70385;SDS011;63206;55.650;37.500;2023-01-20T09:00:15;36.08;;;13.23;;
70385;SDS011;63206;55.650;37.500;2023-01-20T09:02:47;36.22;;;13.07;;
70385;SDS011;63206;55.650;37.500;2023-01-20T09:05:16;33.20;;;12.35;;
70385;SDS011;63206;55.650;37.500;2023-01-20T09:07:44;40.08;;;12.20;;
70385;SDS011;63206;55.650;37.500;2023-01-20T09:10:19;35.72;;;12.88;;
70385;SDS011;63206;55.650;37.500;2023-01-20T09:12:50;39.55;;;13.50;;
70385;SDS011;63206;55.650;37.500;2023-01-20T09:15:19;35.88;;;13.25;;
70385;SDS011;63206;55.650;37.500;2023-01-20T09:17:51;36.17;;;13.10;;
70385;SDS011;63206;55.650;37.500;2023-01-20T09:20:17;38.08;;;13.63;;
70385;SDS011;63206;55.650;37.500;2023-01-20T09:22:43;39.13;;;13.30;;
70385;SDS011;63206;55.650;37.500;2023-01-20T09:25:14;37.95;;;13.50;;
70385;SDS011;63206;55.650;37.500;2023-01-20T09:27:43;34.92;;;11.98;;
70385;SDS011;63206;55.650;37.500;2023-01-20T09:30:12;35.83;;;13.00;;
70385;SDS011;63206;55.650;37.500;2023-01-20T09:32:45;38.20;;;13.50;;
70385;SDS011;63206;55.650;37.500;2023-01-20T09:35:18;38.15;;;12.90;;
70385;SDS011;63206;55.650;37.500;2023-01-20T09:37:50;34.92;;;12.55;;
70385;SDS011;63206;55.650;37.500;2023-01-20T09:40:47;37.17;;;12.90;;
70385;SDS011;63206;55.650;37.500;2023-01-20T09:49:21;37.97;;;13.60;;
70385;SDS011;63206;55.650;37.500;2023-01-20T09:52:21;36.13;;;13.55;;
70385;SDS011;63206;55.650;37.500;2023-01-20T09:55:54;31.67;;;11.40;;
70385;SDS011;63206;55.650;37.500;2023-01-20T09:58:14;33.75;;;12.60;;
70385;SDS011;63206;55.650;37.500;2023-01-20T10:00:45;33.97;;;13.45;;
70385;SDS011;63206;55.650;37.500;2023-01-20T10:03:58;33.80;;;12.70;;
70385;SDS011;63206;55.650;37.500;2023-01-20T10:06:12;39.85;;;13.60;;
70385;SDS011;63206;55.650;37.500;2023-01-20T10:08:46;37.35;;;12.98;;
70385;SDS011;63206;55.650;37.500;2023-01-20T10:11:18;33.33;;;12.05;;
70385;SDS011;63206;55.650;37.500;2023-01-20T10:16:23;37.88;;;13.43;;
70385;SDS011;63206;55.650;37.500;2023-01-20T10:19:00;35.97;;;12.13;;
70385;SDS011;63206;55.650;37.500;2023-01-20T10:21:31;36.60;;;13.00;;
70385;SDS011;63206;55.650;37.500;2023-01-20T10:24:11;40.40;;;13.40;;
70385;SDS011;63206;55.650;37.500;2023-01-20T10:26:45;36.72;;;12.48;;
70385;SDS011;63206;55.650;37.500;2023-01-20T10:29:21;31.63;;;12.38;;
70385;SDS011;63206;55.650;37.500;2023-01-20T10:32:01;30.98;;;12.38;;
70385;SDS011;63206;55.650;37.500;2023-01-20T10:34:36;36.17;;;12.77;;
70385;SDS011;63206;55.650;37.500;2023-01-20T10:37:12;33.50;;;12.20;;
70385;SDS011;63206;55.650;37.500;2023-01-20T10:42:34;37.05;;;12.10;;
70385;SDS011;63206;55.650;37.500;2023-01-20T10:45:05;33.45;;;12.32;;
70385;SDS011;63206;55.650;37.500;2023-01-20T10:47:46;34.85;;;12.52;;
70385;SDS011;63206;55.650;37.500;2023-01-20T10:50:19;33.58;;;12.02;;
70385;SDS011;63206;55.650;37.500;2023-01-20T10:58:31;36.40;;;12.30;;
70385;SDS011;63206;55.650;37.500;2023-01-20T11:01:04;33.40;;;12.50;;
70385;SDS011;63206;55.650;37.500;2023-01-20T11:03:39;34.28;;;12.52;;
70385;SDS011;63206;55.650;37.500;2023-01-20T11:06:19;37.58;;;12.45;;
70385;SDS011;63206;55.650;37.500;2023-01-20T11:08:51;30.92;;;12.05;;
70385;SDS011;63206;55.650;37.500;2023-01-20T11:11:23;32.90;;;12.20;;
70385;SDS011;63206;55.650;37.500;2023-01-20T11:13:54;35.97;;;12.38;;
70385;SDS011;63206;55.650;37.500;2023-01-20T11:16:27;34.45;;;12.88;;
70385;SDS011;63206;55.650;37.500;2023-01-20T11:21:25;37.55;;;12.13;;
70385;SDS011;63206;55.650;37.500;2023-01-20T11:23:52;33.92;;;11.60;;
70385;SDS011;63206;55.650;37.500;2023-01-20T11:26:34;36.20;;;13.00;;
70385;SDS011;63206;55.650;37.500;2023-01-20T11:31:52;30.90;;;11.55;;
70385;SDS011;63206;55.650;37.500;2023-01-20T11:39:33;32.88;;;11.80;;
70385;SDS011;63206;55.650;37.500;2023-01-20T11:42:24;32.63;;;12.02;;
70385;SDS011;63206;55.650;37.500;2023-01-20T11:44:53;28.05;;;10.00;;
70385;SDS011;63206;55.650;37.500;2023-01-20T11:47:31;32.45;;;12.25;;
70385;SDS011;63206;55.650;37.500;2023-01-20T11:52:47;27.30;;;10.23;;
70385;SDS011;63206;55.650;37.500;2023-01-20T11:55:20;29.15;;;11.07;;
70385;SDS011;63206;55.650;37.500;2023-01-20T12:05:38;32.17;;;11.40;;
70385;SDS011;63206;55.650;37.500;2023-01-20T12:08:52;27.83;;;11.40;;
70385;SDS011;63206;55.650;37.500;2023-01-20T12:11:01;29.85;;;11.23;;
70385;SDS011;63206;55.650;37.500;2023-01-20T12:13:32;29.70;;;10.73;;
70385;SDS011;63206;55.650;37.500;2023-01-20T12:16:20;30.30;;;10.88;;
70385;SDS011;63206;55.650;37.500;2023-01-20T12:18:51;27.40;;;10.20;;
70385;SDS011;63206;55.650;37.500;2023-01-20T12:21:18;29.10;;;10.90;;
70385;SDS011;63206;55.650;37.500;2023-01-20T12:26:17;28.80;;;11.30;;
70385;SDS011;63206;55.650;37.500;2023-01-20T12:28:57;30.63;;;10.90;;
70385;SDS011;63206;55.650;37.500;2023-01-20T12:31:25;31.83;;;9.80;;
70385;SDS011;63206;55.650;37.500;2023-01-20T12:34:01;28.95;;;10.05;;
70385;SDS011;63206;55.650;37.500;2023-01-20T12:39:39;26.58;;;9.80;;
70385;SDS011;63206;55.650;37.500;2023-01-20T12:42:18;25.02;;;9.88;;
70385;SDS011;63206;55.650;37.500;2023-01-20T12:55:45;31.75;;;10.90;;
70385;SDS011;63206;55.650;37.500;2023-01-20T13:16:42;26.30;;;9.77;;
70385;SDS011;63206;55.650;37.500;2023-01-20T13:19:14;23.73;;;9.15;;
70385;SDS011;63206;55.650;37.500;2023-01-20T13:21:46;25.88;;;9.52;;
70385;SDS011;63206;55.650;37.500;2023-01-20T13:24:21;27.63;;;9.65;;
70385;SDS011;63206;55.650;37.500;2023-01-20T13:26:54;26.00;;;9.23;;
70385;SDS011;63206;55.650;37.500;2023-01-20T13:29:21;25.15;;;9.00;;
70385;SDS011;63206;55.650;37.500;2023-01-20T13:31:49;25.60;;;9.32;;
70385;SDS011;63206;55.650;37.500;2023-01-20T13:50:23;24.40;;;9.30;;
70385;SDS011;63206;55.650;37.500;2023-01-20T13:57:54;22.45;;;7.72;;
70385;SDS011;63206;55.650;37.500;2023-01-20T14:00:22;26.08;;;8.68;;
70385;SDS011;63206;55.650;37.500;2023-01-20T14:02:48;25.42;;;8.68;;
70385;SDS011;63206;55.650;37.500;2023-01-20T14:05:21;27.40;;;9.03;;
70385;SDS011;63206;55.650;37.500;2023-01-20T14:07:48;26.10;;;9.55;;
70385;SDS011;63206;55.650;37.500;2023-01-20T14:10:14;25.65;;;8.85;;
70385;SDS011;63206;55.650;37.500;2023-01-20T14:12:42;21.52;;;7.78;;
70385;SDS011;63206;55.650;37.500;2023-01-20T14:18:13;20.95;;;7.43;;
70385;SDS011;63206;55.650;37.500;2023-01-20T14:20:39;24.73;;;8.60;;
70385;SDS011;63206;55.650;37.500;2023-01-20T14:26:03;25.13;;;8.05;;
70385;SDS011;63206;55.650;37.500;2023-01-20T14:28:29;24.13;;;9.02;;
70385;SDS011;63206;55.650;37.500;2023-01-20T14:31:12;27.23;;;8.98;;
70385;SDS011;63206;55.650;37.500;2023-01-20T14:33:42;25.88;;;9.05;;
70385;SDS011;63206;55.650;37.500;2023-01-20T14:36:14;24.88;;;8.45;;
70385;SDS011;63206;55.650;37.500;2023-01-20T14:38:51;26.02;;;8.88;;
70385;SDS011;63206;55.650;37.500;2023-01-20T14:41:29;23.75;;;7.85;;
70385;SDS011;63206;55.650;37.500;2023-01-20T14:44:01;23.27;;;9.02;;
70385;SDS011;63206;55.650;37.500;2023-01-20T14:46:35;24.23;;;9.00;;
70385;SDS011;63206;55.650;37.500;2023-01-20T14:49:06;25.58;;;9.25;;
70385;SDS011;63206;55.650;37.500;2023-01-20T14:51:34;22.77;;;8.13;;
70385;SDS011;63206;55.650;37.500;2023-01-20T14:59:19;21.08;;;8.00;;
70385;SDS011;63206;55.650;37.500;2023-01-20T15:01:52;24.45;;;9.27;;
70385;SDS011;63206;55.650;37.500;2023-01-20T15:04:21;25.15;;;8.57;;
70385;SDS011;63206;55.650;37.500;2023-01-20T15:06:51;20.65;;;8.00;;
70385;SDS011;63206;55.650;37.500;2023-01-20T15:09:33;21.48;;;7.97;;
70385;SDS011;63206;55.650;37.500;2023-01-20T15:17:33;24.25;;;8.20;;
70385;SDS011;63206;55.650;37.500;2023-01-20T15:20:02;24.92;;;8.90;;
70385;SDS011;63206;55.650;37.500;2023-01-20T15:22:31;21.08;;;8.13;;
70385;SDS011;63206;55.650;37.500;2023-01-20T15:25:06;20.60;;;7.82;;
70385;SDS011;63206;55.650;37.500;2023-01-20T15:27:36;25.02;;;8.10;;
70385;SDS011;63206;55.650;37.500;2023-01-20T15:30:11;22.20;;;8.77;;
70385;SDS011;63206;55.650;37.500;2023-01-20T15:32:37;24.88;;;8.82;;
70385;SDS011;63206;55.650;37.500;2023-01-20T15:35:09;24.33;;;8.52;;
70385;SDS011;63206;55.650;37.500;2023-01-20T15:37:41;25.95;;;9.55;;
70385;SDS011;63206;55.650;37.500;2023-01-20T15:40:14;22.48;;;8.30;;
70385;SDS011;63206;55.650;37.500;2023-01-20T15:42:41;26.02;;;8.82;;
70385;SDS011;63206;55.650;37.500;2023-01-20T15:45:10;26.95;;;9.18;;
70385;SDS011;63206;55.650;37.500;2023-01-20T15:47:37;23.27;;;8.23;;
70385;SDS011;63206;55.650;37.500;2023-01-20T15:50:04;25.38;;;9.35;;
70385;SDS011;63206;55.650;37.500;2023-01-20T15:52:30;23.15;;;8.80;;
70385;SDS011;63206;55.650;37.500;2023-01-20T15:54:56;23.02;;;9.05;;
70385;SDS011;63206;55.650;37.500;2023-01-20T15:57:22;26.42;;;8.98;;
70385;SDS011;63206;55.650;37.500;2023-01-20T15:59:48;27.50;;;8.85;;
70385;SDS011;63206;55.650;37.500;2023-01-20T16:02:15;23.98;;;9.13;;
70385;SDS011;63206;55.650;37.500;2023-01-20T16:04:44;24.15;;;8.13;;
70385;SDS011;63206;55.650;37.500;2023-01-20T16:07:18;24.95;;;8.68;;
70385;SDS011;63206;55.650;37.500;2023-01-20T16:09:44;22.38;;;8.77;;
70385;SDS011;63206;55.650;37.500;2023-01-20T16:12:12;26.33;;;8.68;;
70385;SDS011;63206;55.650;37.500;2023-01-20T16:14:38;24.95;;;9.20;;
70385;SDS011;63206;55.650;37.500;2023-01-20T16:17:11;21.38;;;8.88;;
70385;SDS011;63206;55.650;37.500;2023-01-20T16:19:38;26.05;;;9.45;;
70385;SDS011;63206;55.650;37.500;2023-01-20T16:22:06;23.75;;;9.00;;
70385;SDS011;63206;55.650;37.500;2023-01-20T16:24:33;26.00;;;8.43;;
70385;SDS011;63206;55.650;37.500;2023-01-20T16:26:59;24.70;;;9.95;;
70385;SDS011;63206;55.650;37.500;2023-01-20T16:29:30;22.75;;;8.43;;
70385;SDS011;63206;55.650;37.500;2023-01-20T16:31:56;23.23;;;8.98;;
70385;SDS011;63206;55.650;37.500;2023-01-20T16:34:22;28.60;;;9.70;;
70385;SDS011;63206;55.650;37.500;2023-01-20T16:36:48;24.35;;;9.25;;
70385;SDS011;63206;55.650;37.500;2023-01-20T16:39:14;25.80;;;8.95;;
70385;SDS011;63206;55.650;37.500;2023-01-20T16:41:45;25.98;;;8.88;;
70385;SDS011;63206;55.650;37.500;2023-01-20T16:44:14;27.48;;;9.07;;
70385;SDS011;63206;55.650;37.500;2023-01-20T16:46:46;24.40;;;9.73;;
70385;SDS011;63206;55.650;37.500;2023-01-20T16:49:15;25.27;;;9.82;;
70385;SDS011;63206;55.650;37.500;2023-01-20T16:51:45;27.27;;;9.48;;
70385;SDS011;63206;55.650;37.500;2023-01-20T16:54:14;27.55;;;9.35;;
70385;SDS011;63206;55.650;37.500;2023-01-20T16:56:46;27.27;;;9.23;;
70385;SDS011;63206;55.650;37.500;2023-01-20T16:59:14;29.83;;;9.50;;
70385;SDS011;63206;55.650;37.500;2023-01-20T17:01:42;25.63;;;9.43;;
70385;SDS011;63206;55.650;37.500;2023-01-20T17:04:13;28.45;;;10.10;;
70385;SDS011;63206;55.650;37.500;2023-01-20T17:06:39;29.27;;;9.93;;
70385;SDS011;63206;55.650;37.500;2023-01-20T17:09:08;25.50;;;9.20;;
70385;SDS011;63206;55.650;37.500;2023-01-20T17:11:37;25.88;;;9.60;;